Time;durP1;ratioP1;P1;durP2;ratioP2;P2;SDS_P1;SDS_P2;PMS_P1;PMS_P2;Temp;Humidity;BMP_temperature;BMP_pressure;BME280_temperature;BME280_humidity;BME280_pressure;Samples;Min_cycle;Max_cycle;Signal;HPM_P1;HPM_P2
2023/08/07 00:00:58;;;;;;;8.80;8.10;;;;;;;14.49;100.00;99423.03;5070775;28;20228;-77
2023/08/07 00:03:24;;;;;;;9.17;8.40;;;;;;;14.55;100.00;99420.09;5071270;28;20662;-77
2023/08/07 00:05:52;;;;;;;9.43;8.60;;;;;;;14.47;100.00;99415.22;5069794;28;20201;-77
2023/08/07 00:08:19;;;;;;;9.73;8.93;;;;;;;14.43;100.00;99421.56;5064745;28;20304;-77
2023/08/07 00:10:47;;;;;;;9.90;8.87;;;;;;;14.49;100.00;99428.28;5062524;28;20220;-77
2023/08/07 00:13:13;;;;;;;9.57;8.77;;;;;;;14.49;100.00;99430.91;5066913;28;20213;-77
2023/08/07 00:15:40;;;;;;;11.40;10.33;;;;;;;14.45;100.00;99430.22;5068565;28;20212;-77
2023/08/07 00:18:06;;;;;;;10.67;9.63;;;;;;;14.56;100.00;99432.31;5063049;28;20286;-77
2023/08/07 00:20:33;;;;;;;10.80;9.90;;;;;;;14.58;100.00;99429.59;5055605;28;20226;-76
2023/08/07 00:22:59;;;;;;;11.00;10.00;;;;;;;14.56;100.00;99428.81;5053991;28;20215;-77
2023/08/07 00:25:27;;;;;;;10.23;9.40;;;;;;;14.58;100.00;99427.81;5064053;28;20204;-76
2023/08/07 00:27:54;;;;;;;10.23;9.40;;;;;;;14.62;100.00;99431.16;5061229;28;20680;-76
2023/08/07 00:30:20;;;;;;;11.37;10.50;;;;;;;14.58;100.00;99438.34;5071226;28;20235;-77
2023/08/07 00:32:47;;;;;;;10.97;10.13;;;;;;;14.73;100.00;99438.47;5073501;28;20606;-78
2023/08/07 00:35:14;;;;;;;10.43;9.60;;;;;;;14.79;100.00;99435.53;5054734;28;20212;-78
2023/08/07 00:37:40;;;;;;;9.53;8.83;;;;;;;14.76;100.00;99449.66;5060574;28;20203;-77
2023/08/07 00:40:08;;;;;;;10.87;9.87;;;;;;;14.78;100.00;99447.81;5074678;28;20202;-78
2023/08/07 00:42:36;;;;;;;10.30;9.40;;;;;;;14.81;100.00;99444.19;5074924;28;20211;-78
2023/08/07 00:45:03;;;;;;;11.10;10.20;;;;;;;14.89;100.00;99445.47;5074876;28;20204;-78
2023/08/07 00:47:30;;;;;;;10.67;9.70;;;;;;;14.86;100.00;99447.41;5072152;28;20202;-77
2023/08/07 00:49:57;;;;;;;10.43;9.73;;;;;;;14.86;100.00;99436.88;5073940;28;20609;-77
2023/08/07 00:52:24;;;;;;;10.20;9.37;;;;;;;14.81;100.00;99434.50;5074765;28;20240;-78
2023/08/07 00:54:50;;;;;;;10.37;9.47;;;;;;;14.69;100.00;99441.25;5074612;28;20201;-77
2023/08/07 00:57:17;;;;;;;10.47;9.67;;;;;;;14.68;100.00;99446.59;5074056;28;20201;-77
2023/08/07 00:59:47;;;;;;;9.77;8.90;;;;;;;14.80;100.00;99451.19;5074259;28;20274;-77
2023/08/07 01:02:13;;;;;;;10.90;9.90;;;;;;;14.70;100.00;99444.72;5073967;28;20220;-77
2023/08/07 01:04:40;;;;;;;10.20;9.30;;;;;;;14.75;100.00;99449.75;5074374;28;20302;-77
2023/08/07 01:07:07;;;;;;;10.00;9.20;;;;;;;14.82;100.00;99445.88;5071237;28;20201;-77
2023/08/07 01:09:34;;;;;;;9.87;9.00;;;;;;;14.73;100.00;99448.97;5054458;28;20226;-77
2023/08/07 01:12:11;;;;;;;9.17;8.27;;;;;;;14.65;100.00;99449.38;5053723;28;20267;-78
2023/08/07 01:14:47;;;;;;;9.87;9.00;;;;;;;14.58;100.00;99456.72;5054817;28;20590;-78
2023/08/07 01:17:17;;;;;;;9.17;8.47;;;;;;;14.46;100.00;99452.91;5054234;28;20709;-78
2023/08/07 01:19:43;;;;;;;9.70;8.77;;;;;;;14.50;100.00;99458.84;5054214;28;20220;-78
2023/08/07 01:22:12;;;;;;;10.00;9.03;;;;;;;14.41;100.00;99444.44;5057889;28;20698;-78
2023/08/07 01:24:41;;;;;;;10.17;9.13;;;;;;;14.39;100.00;99455.91;5075184;28;20203;-78
2023/08/07 01:27:19;;;;;;;10.83;9.87;;;;;;;14.28;100.00;99452.06;5073549;28;20577;-78
2023/08/07 01:29:54;;;;;;;11.70;10.70;;;;;;;14.33;100.00;99453.59;5073924;28;20231;-77
2023/08/07 01:32:27;;;;;;;12.27;11.03;;;;;;;14.31;100.00;99456.34;5062326;28;20227;-77
2023/08/07 01:34:56;;;;;;;11.50;10.43;;;;;;;14.40;100.00;99452.38;5071096;28;20208;-77
2023/08/07 01:37:24;;;;;;;11.70;9.67;;;;;;;14.33;100.00;99453.59;5074800;28;20205;-77
2023/08/07 01:39:52;;;;;;;10.97;9.23;;;;;;;14.37;100.00;99455.16;5073159;28;20640;-78
2023/08/07 01:42:19;;;;;;;9.73;8.97;;;;;;;14.39;100.00;99458.53;5073532;28;20230;-77
2023/08/07 01:44:45;;;;;;;10.47;9.47;;;;;;;14.39;100.00;99455.91;5073888;28;20208;-77
2023/08/07 01:47:12;;;;;;;10.23;9.33;;;;;;;14.35;100.00;99449.13;5072926;28;20205;-77
2023/08/07 01:49:40;;;;;;;9.90;9.13;;;;;;;14.34;100.00;99450.91;5072850;28;20225;-77
2023/08/07 01:52:08;;;;;;;9.40;8.53;;;;;;;14.28;100.00;99456.47;5073669;28;20224;-77
2023/08/07 01:54:36;;;;;;;9.20;8.40;;;;;;;14.29;100.00;99460.78;5073467;28;20230;-77
2023/08/07 01:57:03;;;;;;;9.30;8.60;;;;;;;14.30;100.00;99459.88;5072854;28;20212;-77
2023/08/07 01:59:29;;;;;;;9.03;7.40;;;;;;;14.27;100.00;99455.63;5073420;28;20212;-78
2023/08/07 02:01:55;;;;;;;8.70;7.90;;;;;;;14.26;100.00;99453.91;5072803;28;20216;-77
2023/08/07 02:04:22;;;;;;;9.13;8.47;;;;;;;14.29;100.00;99448.53;5073551;28;20211;-77
2023/08/07 02:06:49;;;;;;;8.67;7.73;;;;;;;14.18;100.00;99460.47;5074378;28;20239;-77
2023/08/07 02:09:15;;;;;;;8.33;7.53;;;;;;;14.12;100.00;99456.38;5065700;28;20220;-77
2023/08/07 02:11:44;;;;;;;9.50;8.70;;;;;;;14.16;100.00;99463.19;5072717;28;20231;-77
2023/08/07 02:14:10;;;;;;;10.70;7.70;;;;;;;14.12;100.00;99459.00;5073460;28;20201;-77
2023/08/07 02:16:37;;;;;;;8.40;7.53;;;;;;;14.09;100.00;99457.38;5073405;28;20203;-78
2023/08/07 02:19:03;;;;;;;8.43;7.57;;;;;;;14.09;100.00;99453.91;5054866;28;20208;-77
2023/08/07 02:21:30;;;;;;;6.87;6.37;;;;;;;14.19;100.00;99454.28;5058413;28;20224;-77
2023/08/07 02:23:56;;;;;;;8.03;6.70;;;;;;;14.18;100.00;99442.13;5073237;28;20212;-77
2023/08/07 02:26:23;;;;;;;7.60;7.00;;;;;;;14.12;100.00;99438.00;5072980;28;20201;-77
2023/08/07 02:28:50;;;;;;;7.37;6.30;;;;;;;14.20;100.00;99430.59;5073780;28;20236;-77
2023/08/07 02:31:17;;;;;;;7.07;6.47;;;;;;;14.20;100.00;99435.84;5072642;28;20231;-77
2023/08/07 02:33:43;;;;;;;7.00;6.33;;;;;;;14.17;100.00;99440.41;5075013;28;20205;-79
2023/08/07 02:36:10;;;;;;;6.60;5.90;;;;;;;14.23;100.00;99435.72;5073385;28;20215;-79
2023/08/07 02:38:36;;;;;;;7.33;6.63;;;;;;;14.29;100.00;99439.78;5055472;28;20628;-78
2023/08/07 02:41:03;;;;;;;6.67;6.17;;;;;;;14.27;100.00;99439.88;5052879;28;20237;-78
2023/08/07 02:43:32;;;;;;;7.10;6.50;;;;;;;14.23;100.00;99440.97;5055581;28;20237;-79
2023/08/07 02:46:00;;;;;;;7.83;7.03;;;;;;;14.25;100.00;99441.72;5056985;28;20227;-79
2023/08/07 02:48:27;;;;;;;7.17;6.60;;;;;;;14.21;100.00;99445.44;5059603;28;20202;-78
2023/08/07 02:50:53;;;;;;;7.87;7.17;;;;;;;14.13;100.00;99434.44;5076154;28;20228;-79
2023/08/07 02:53:20;;;;;;;8.93;7.97;;;;;;;14.17;100.00;99437.78;5077302;28;20212;-78
2023/08/07 02:55:46;;;;;;;7.87;7.13;;;;;;;14.12;100.00;99432.75;5075130;28;20203;-78
2023/08/07 02:58:13;;;;;;;8.93;8.13;;;;;;;14.03;100.00;99436.72;5075068;28;20213;-78
2023/08/07 03:00:39;;;;;;;7.97;7.30;;;;;;;14.03;100.00;99439.34;5073911;28;20217;-77
2023/08/07 03:03:07;;;;;;;8.40;7.67;;;;;;;13.96;100.00;99440.53;5073254;28;20219;-78
2023/08/07 03:05:33;;;;;;;10.93;7.17;;;;;;;13.97;100.00;99434.34;5072863;28;20207;-77
2023/08/07 03:08:00;;;;;;;8.50;7.60;;;;;;;14.16;100.00;99430.84;5072717;28;20704;-78
2023/08/07 03:10:26;;;;;;;7.57;6.27;;;;;;;14.19;100.00;99442.03;5073003;28;20229;-78
2023/08/07 03:12:53;;;;;;;6.63;5.93;;;;;;;14.17;100.00;99443.03;5073624;28;20205;-78
2023/08/07 03:15:19;;;;;;;6.80;6.13;;;;;;;14.09;100.00;99446.91;5067744;28;20197;-78
2023/08/07 03:17:46;;;;;;;6.23;5.77;;;;;;;14.15;100.00;99450.97;5087228;28;20200;-78
2023/08/07 03:20:14;;;;;;;6.27;5.67;;;;;;;14.00;100.00;99457.00;5089749;28;20204;-79
2023/08/07 03:22:41;;;;;;;6.50;5.97;;;;;;;14.06;100.00;99449.66;5088942;28;20212;-78
2023/08/07 03:25:07;;;;;;;7.47;6.23;;;;;;;13.97;100.00;99451.88;5088265;28;20204;-78
2023/08/07 03:27:34;;;;;;;5.93;5.53;;;;;;;14.12;100.00;99455.53;5080134;28;20204;-78
2023/08/07 03:30:00;;;;;;;5.90;5.40;;;;;;;14.09;100.00;99461.75;5074834;28;20254;-78
2023/08/07 03:32:27;;;;;;;8.40;6.43;;;;;;;14.10;100.00;99466.94;5074787;28;20203;-78
2023/08/07 03:34:53;;;;;;;15.13;5.80;;;;;;;14.12;100.00;99466.03;5074372;28;20204;-78
2023/08/07 03:37:21;;;;;;;5.90;5.40;;;;;;;14.04;100.00;99462.00;5074466;28;20208;-78
2023/08/07 03:39:48;;;;;;;5.53;5.13;;;;;;;14.06;100.00;99461.94;5075050;28;20197;-79
2023/08/07 03:42:15;;;;;;;7.47;5.03;;;;;;;14.06;100.00;99464.56;5073806;28;20255;-77
2023/08/07 03:44:42;;;;;;;7.97;5.53;;;;;;;14.03;100.00;99460.31;5072107;28;20201;-78
2023/08/07 03:47:08;;;;;;;5.67;5.27;;;;;;;14.16;100.00;99465.81;5071848;28;20197;-78
2023/08/07 03:49:35;;;;;;;5.90;5.30;;;;;;;14.24;100.00;99468.06;5071590;28;20694;-76
2023/08/07 03:52:01;;;;;;;7.07;5.13;;;;;;;14.17;100.00;99474.50;5074003;28;20594;-79
2023/08/07 03:54:29;;;;;;;6.07;5.37;;;;;;;14.23;100.00;99471.59;5072530;28;20204;-79
2023/08/07 03:56:55;;;;;;;6.23;5.63;;;;;;;14.33;100.00;99480.72;5073892;28;20242;-79
2023/08/07 03:59:22;;;;;;;7.53;6.27;;;;;;;14.21;100.00;99476.06;5073934;28;20197;-79
2023/08/07 04:01:48;;;;;;;6.80;6.20;;;;;;;14.26;100.00;99481.94;5074415;28;20227;-78
2023/08/07 04:04:15;;;;;;;6.40;5.93;;;;;;;14.38;100.00;99483.13;5079330;28;20215;-78
2023/08/07 04:06:42;;;;;;;7.40;6.80;;;;;;;14.37;100.00;99478.78;5083028;28;20200;-78
2023/08/07 04:09:10;;;;;;;7.70;7.00;;;;;;;14.28;100.00;99480.09;5078845;28;20686;-79
2023/08/07 04:11:38;;;;;;;11.40;7.87;;;;;;;14.21;100.00;99479.56;5078694;28;20227;-78
2023/08/07 04:14:05;;;;;;;8.87;8.07;;;;;;;14.18;100.00;99479.69;5078866;28;20216;-78
2023/08/07 04:16:32;;;;;;;11.33;8.13;;;;;;;14.27;100.00;99487.13;5079222;28;20204;-78
2023/08/07 04:18:59;;;;;;;8.70;7.90;;;;;;;14.27;100.00;99486.25;5078659;28;20314;-78
2023/08/07 04:21:26;;;;;;;8.47;7.60;;;;;;;14.31;100.00;99485.22;5078800;28;20275;-78
2023/08/07 04:23:52;;;;;;;8.23;7.43;;;;;;;14.22;100.00;99475.16;5078574;28;20207;-79
2023/08/07 04:26:19;;;;;;;8.77;7.93;;;;;;;14.22;100.00;99477.78;5078128;28;20216;-78
2023/08/07 04:28:46;;;;;;;8.50;7.77;;;;;;;14.24;100.00;99481.19;5078685;28;20201;-78
2023/08/07 04:31:13;;;;;;;10.77;7.70;;;;;;;14.25;100.00;99483.72;5077557;28;20235;-77
2023/08/07 04:33:40;;;;;;;8.07;7.33;;;;;;;14.18;100.00;99484.09;5077772;28;20643;-79
2023/08/07 04:36:06;;;;;;;10.00;7.97;;;;;;;14.26;100.00;99487.19;5078269;28;20211;-78
2023/08/07 04:38:33;;;;;;;11.33;8.17;;;;;;;14.17;100.00;99490.25;5078245;28;20208;-79
2023/08/07 04:40:59;;;;;;;8.70;7.90;;;;;;;14.23;100.00;99495.22;5077781;28;20228;-78
2023/08/07 04:43:27;;;;;;;7.77;7.17;;;;;;;14.30;100.00;99499.25;5078925;28;20212;-78
2023/08/07 04:45:55;;;;;;;7.93;7.13;;;;;;;14.32;100.00;99496.56;5076866;28;20208;-78
2023/08/07 04:48:25;;;;;;;10.73;7.60;;;;;;;14.23;100.00;99497.84;5075992;28;20212;-79
2023/08/07 04:50:51;;;;;;;7.13;6.40;;;;;;;14.35;100.00;99496.38;5074631;28;20282;-79
2023/08/07 04:53:17;;;;;;;6.03;5.43;;;;;;;14.33;100.00;99500.84;5075568;28;20658;-78
2023/08/07 04:55:44;;;;;;;7.50;6.20;;;;;;;14.46;100.00;99500.16;5060265;28;20667;-78
2023/08/07 04:58:10;;;;;;;6.10;5.57;;;;;;;14.35;100.00;99505.13;5055738;28;20206;-78
2023/08/07 05:00:37;;;;;;;7.33;5.60;;;;;;;14.23;100.00;99510.97;5056093;28;20224;-78
2023/08/07 05:03:05;;;;;;;6.63;6.13;;;;;;;14.34;100.00;99510.44;5056258;28;20255;-78
2023/08/07 05:05:32;;;;;;;6.57;5.77;;;;;;;14.42;100.00;99521.41;5054354;28;20216;-77
2023/08/07 05:07:59;;;;;;;6.20;5.70;;;;;;;14.25;100.00;99525.72;5057178;28;20209;-78
2023/08/07 05:10:26;;;;;;;7.67;5.57;;;;;;;14.10;100.00;99519.44;5054658;28;20221;-77
2023/08/07 05:12:55;;;;;;;7.70;5.63;;;;;;;14.14;100.00;99520.16;5054664;28;20211;-78
2023/08/07 05:15:21;;;;;;;7.70;7.00;;;;;;;14.10;100.00;99522.06;5054948;28;20216;-78
2023/08/07 05:17:48;;;;;;;6.40;5.90;;;;;;;14.13;100.00;99509.72;5053474;28;20203;-77
2023/08/07 05:20:16;;;;;;;6.93;6.10;;;;;;;14.23;100.00;99519.72;5054576;28;20206;-77
2023/08/07 05:22:42;;;;;;;7.40;6.00;;;;;;;14.09;100.00;99525.63;5054736;28;20202;-78
2023/08/07 05:25:11;;;;;;;7.50;6.90;;;;;;;14.10;100.00;99526.47;5053937;28;20229;-78
2023/08/07 05:27:37;;;;;;;7.23;6.73;;;;;;;14.18;100.00;99521.69;5054415;28;20207;-77
2023/08/07 05:30:05;;;;;;;6.70;6.13;;;;;;;14.28;100.00;99525.56;5054832;28;20236;-77
2023/08/07 05:32:32;;;;;;;6.83;6.23;;;;;;;14.26;100.00;99529.19;5055657;28;20205;-79
2023/08/07 05:34:59;;;;;;;7.00;6.40;;;;;;;14.33;100.00;99533.22;5056197;28;20211;-78
2023/08/07 05:37:27;;;;;;;6.23;5.63;;;;;;;14.30;100.00;99520.25;5056646;28;20217;-78
2023/08/07 05:39:53;;;;;;;6.47;5.97;;;;;;;14.38;100.00;99530.38;5056419;28;20202;-77
2023/08/07 05:42:27;;;;;;;6.30;5.80;;;;;;;14.37;100.00;99540.03;5057593;28;20308;-78
2023/08/07 05:44:54;;;;;;;6.70;5.93;;;;;;;14.53;100.00;99537.50;5057082;28;20209;-77
2023/08/07 05:47:20;;;;;;;6.23;5.73;;;;;;;14.39;100.00;99548.69;5075147;28;20213;-78
2023/08/07 05:49:46;;;;;;;6.63;6.00;;;;;;;14.37;100.00;99553.16;5075479;28;20228;-78
2023/08/07 05:52:15;;;;;;;6.93;6.30;;;;;;;14.40;100.00;99560.03;5076023;28;20231;-78
2023/08/07 05:54:43;;;;;;;6.57;5.93;;;;;;;14.41;100.00;99553.84;5076604;28;20208;-78
2023/08/07 05:57:10;;;;;;;6.20;5.60;;;;;;;14.31;100.00;99553.47;5065486;28;20208;-78
2023/08/07 05:59:36;;;;;;;6.07;5.63;;;;;;;14.30;100.00;99543.88;5055386;28;20204;-77
2023/08/07 06:02:04;;;;;;;5.80;5.20;;;;;;;14.32;100.00;99542.03;5055368;28;20616;-77
2023/08/07 06:04:30;;;;;;;6.07;5.57;;;;;;;14.46;100.00;99546.59;5055292;28;20216;-79
2023/08/07 06:06:57;;;;;;;5.50;5.00;;;;;;;14.43;100.00;99542.34;5055972;28;20663;-78
2023/08/07 06:09:23;;;;;;;6.13;5.20;;;;;;;14.54;100.00;99548.84;5055840;28;20214;-78
2023/08/07 06:11:51;;;;;;;5.40;4.90;;;;;;;14.61;100.00;99556.38;5054988;28;20600;-77
2023/08/07 06:14:17;;;;;;;4.93;4.43;;;;;;;14.62;100.00;99552.81;5053927;28;20236;-77
2023/08/07 06:16:44;;;;;;;5.27;4.77;;;;;;;14.67;100.00;99549.97;5052759;28;20233;-77
2023/08/07 06:19:11;;;;;;;5.37;4.83;;;;;;;14.70;100.00;99552.44;5053781;28;20232;-78
2023/08/07 06:21:37;;;;;;;5.47;4.00;;;;;;;14.78;100.00;99552.88;5053543;28;20221;-76
2023/08/07 06:24:04;;;;;;;7.20;4.70;;;;;;;14.74;100.00;99556.59;5067116;28;20215;-76
2023/08/07 06:26:30;;;;;;;4.63;4.23;;;;;;;14.81;100.00;99559.78;5072488;28;20207;-78
2023/08/07 06:28:58;;;;;;;4.07;3.67;;;;;;;14.75;100.00;99568.81;5076988;28;20212;-79
2023/08/07 06:31:25;;;;;;;4.83;4.17;;;;;;;14.79;100.00;99567.75;5071831;28;20258;-76
2023/08/07 06:33:51;;;;;;;7.97;4.13;;;;;;;14.94;100.00;99576.59;5072356;28;20227;-76
2023/08/07 06:36:18;;;;;;;3.70;3.40;;;;;;;14.81;100.00;99579.03;5072543;28;20209;-76
2023/08/07 06:38:44;;;;;;;4.03;3.63;;;;;;;14.82;100.00;99574.59;5072177;28;20249;-76
2023/08/07 06:41:11;;;;;;;4.33;4.03;;;;;;;14.81;100.00;99588.69;5072117;28;20221;-77
2023/08/07 06:43:37;;;;;;;4.97;3.60;;;;;;;14.86;100.00;99590.13;5073889;28;20213;-77
2023/08/07 06:46:05;;;;;;;3.17;2.97;;;;;;;14.87;100.00;99585.75;5071907;28;20686;-77
2023/08/07 06:48:33;;;;;;;4.43;4.03;;;;;;;14.89;100.00;99602.28;5071193;28;20283;-76
2023/08/07 06:50:59;;;;;;;3.47;3.17;;;;;;;14.86;100.00;99599.78;5071461;28;20709;-76
2023/08/07 06:53:26;;;;;;;3.60;3.20;;;;;;;14.89;100.00;99594.41;5070242;28;20206;-77
2023/08/07 06:55:53;;;;;;;2.73;2.53;;;;;;;14.91;100.00;99604.84;5051309;28;20208;-76
2023/08/07 06:58:19;;;;;;;3.27;3.07;;;;;;;14.89;100.00;99602.28;5051951;28;20212;-76
2023/08/07 07:00:46;;;;;;;3.17;2.87;;;;;;;14.95;100.00;99616.91;5051674;28;20220;-76
2023/08/07 07:03:15;;;;;;;3.07;2.87;;;;;;;15.06;100.00;99606.66;5068282;28;20232;-77
2023/08/07 07:05:42;;;;;;;3.00;2.80;;;;;;;15.13;100.00;99604.59;5071910;28;20200;-75
2023/08/07 07:08:09;;;;;;;3.67;3.13;;;;;;;15.25;100.00;99615.31;5071736;28;20209;-77
2023/08/07 07:10:36;;;;;;;2.63;2.43;;;;;;;15.32;100.00;99633.41;5071256;28;20231;-76
2023/08/07 07:13:02;;;;;;;2.67;2.27;;;;;;;15.37;100.00;99639.28;5071942;28;20208;-77
2023/08/07 07:15:29;;;;;;;5.73;2.60;;;;;;;15.46;100.00;99637.03;5071594;28;20217;-76
2023/08/07 07:17:55;;;;;;;3.47;2.93;;;;;;;15.53;100.00;99626.19;5071143;28;20208;-76
2023/08/07 07:20:23;;;;;;;2.83;2.57;;;;;;;15.41;100.00;99640.84;5071644;28;20201;-76
2023/08/07 07:22:49;;;;;;;2.80;2.60;;;;;;;15.34;100.00;99635.06;5072067;28;20201;-76
2023/08/07 07:25:16;;;;;;;3.87;3.47;;;;;;;15.26;100.00;99652.97;5070791;28;20212;-76
2023/08/07 07:27:43;;;;;;;3.67;2.70;;;;;;;15.23;100.00;99648.72;5071939;28;20208;-76
2023/08/07 07:30:10;;;;;;;2.63;2.43;;;;;;;15.26;100.00;99647.72;5071094;28;20236;-76
2023/08/07 07:32:36;;;;;;;2.90;2.70;;;;;;;15.20;100.00;99646.28;5071279;28;20208;-75
2023/08/07 07:35:03;;;;;;;3.07;2.83;;;;;;;15.21;100.00;99655.84;5064922;28;20679;-76
2023/08/07 07:37:32;;;;;;;3.30;3.00;;;;;;;15.28;100.00;99652.00;5051332;28;20235;-76
2023/08/07 07:39:59;;;;;;;3.87;2.93;;;;;;;15.20;100.00;99645.41;5050182;28;20214;-76
2023/08/07 07:42:25;;;;;;;3.63;3.33;;;;;;;15.17;100.00;99638.53;5054753;28;20232;-78
2023/08/07 07:44:52;;;;;;;3.57;3.27;;;;;;;15.09;100.00;99638.91;5073094;28;20219;-76
2023/08/07 07:47:18;;;;;;;4.10;3.40;;;;;;;15.11;100.00;99628.34;5070841;28;20205;-76
2023/08/07 07:49:47;;;;;;;4.03;3.73;;;;;;;15.02;100.00;99634.88;5070590;28;20698;-76
2023/08/07 07:52:14;;;;;;;3.43;3.23;;;;;;;15.09;100.00;99631.03;5071202;28;20582;-76
2023/08/07 07:54:41;;;;;;;3.90;3.60;;;;;;;14.99;100.00;99640.31;5071617;28;20209;-76
2023/08/07 07:57:08;;;;;;;4.00;3.60;;;;;;;14.84;100.00;99607.75;5070543;28;20230;-77
2023/08/07 07:59:34;;;;;;;4.30;4.00;;;;;;;14.54;100.00;99593.50;5071065;28;20215;-76
2023/08/07 08:02:01;;;;;;;4.67;4.33;;;;;;;14.42;100.00;99580.03;5070676;28;20768;-75
2023/08/07 08:04:28;;;;;;;5.17;4.60;;;;;;;14.49;100.00;99581.44;5071245;28;20312;-76
2023/08/07 08:06:54;;;;;;;5.43;4.93;;;;;;;14.55;100.00;99590.78;5071441;28;20230;-76
2023/08/07 08:09:21;;;;;;;5.50;5.10;;;;;;;14.69;100.00;99593.63;5071604;28;20205;-76
2023/08/07 08:11:48;;;;;;;4.80;4.40;;;;;;;14.82;100.00;99591.22;5070674;28;20228;-76
2023/08/07 08:14:16;;;;;;;5.50;5.10;;;;;;;14.96;100.00;99606.28;5071011;28;20577;-77
2023/08/07 08:16:42;;;;;;;6.10;5.33;;;;;;;15.01;100.00;99612.16;5071029;28;20210;-76
2023/08/07 08:19:09;;;;;;;5.60;4.83;;;;;;;15.06;100.00;99620.69;5071137;28;20243;-76
2023/08/07 08:21:36;;;;;;;4.67;4.27;;;;;;;15.25;100.00;99625.00;5070753;28;20231;-76
2023/08/07 08:24:02;;;;;;;8.50;4.83;;;;;;;15.35;100.00;99620.13;5071161;28;20208;-76
2023/08/07 08:26:29;;;;;;;3.57;3.27;;;;;;;15.40;100.00;99624.22;5070404;28;20215;-77
2023/08/07 08:28:57;;;;;;;4.07;2.97;;;;;;;15.32;100.00;99638.66;5071182;28;20211;-76
2023/08/07 08:31:23;;;;;;;4.00;3.33;;;;;;;15.27;100.00;99652.06;5061724;28;20239;-76
2023/08/07 08:33:50;;;;;;;2.77;2.57;;;;;;;15.30;100.00;99659.78;5051007;28;20259;-77
2023/08/07 08:36:16;;;;;;;2.83;2.57;;;;;;;15.37;100.00;99660.34;5051313;28;20216;-76
2023/08/07 08:38:45;;;;;;;3.10;2.80;;;;;;;15.43;100.00;99668.75;5050819;28;20204;-76
2023/08/07 08:41:11;;;;;;;2.87;2.50;;;;;;;15.23;100.00;99682.06;5050129;28;20228;-76
2023/08/07 08:43:40;;;;;;;3.10;2.30;;;;;;;15.30;100.00;99678.19;5051256;28;20206;-76
2023/08/07 08:46:09;;;;;;;3.33;2.53;;;;;;;15.28;100.00;99667.75;5051095;28;20205;-76
2023/08/07 08:48:38;;;;;;;4.07;2.50;;;;;;;15.35;100.00;99665.66;5050907;28;20560;-76
2023/08/07 08:51:06;;;;;;;3.00;2.80;;;;;;;15.22;100.00;99672.47;5069104;28;20232;-77
2023/08/07 08:53:33;;;;;;;3.37;2.60;;;;;;;15.17;100.00;99671.88;5073274;28;20250;-76
2023/08/07 08:56:00;;;;;;;2.40;2.20;;;;;;;14.96;100.00;99671.16;5074927;28;20204;-77
2023/08/07 08:58:28;;;;;;;5.23;2.93;;;;;;;14.78;100.00;99667.66;5074779;28;20205;-76
2023/08/07 09:00:54;;;;;;;3.27;2.97;;;;;;;14.77;100.00;99658.91;5074765;28;20232;-77
2023/08/07 09:03:22;;;;;;;5.67;4.00;;;;;;;14.73;100.00;99656.50;5074385;28;20212;-78
2023/08/07 09:05:53;;;;;;;3.60;3.30;;;;;;;14.81;100.00;99655.22;5073933;28;20208;-75
2023/08/07 09:08:19;;;;;;;4.13;3.10;;;;;;;14.86;100.00;99660.22;5074266;28;20208;-77
2023/08/07 09:10:46;;;;;;;3.70;3.17;;;;;;;14.87;100.00;99659.31;5073457;28;20232;-77
2023/08/07 09:13:15;;;;;;;3.40;3.10;;;;;;;14.99;100.00;99661.34;5074052;28;20215;-76
2023/08/07 09:15:47;;;;;;;4.17;3.33;;;;;;;15.24;100.00;99660.97;5071808;28;20213;-76
2023/08/07 09:18:14;;;;;;;3.90;3.60;;;;;;;15.41;100.00;99657.44;5073858;28;20666;-76
2023/08/07 09:20:43;;;;;;;2.80;2.60;;;;;;;15.61;100.00;99658.22;5074107;28;20222;-76
2023/08/07 09:23:23;;;;;;;2.67;2.47;;;;;;;15.70;100.00;99665.63;5075301;28;20234;-76
2023/08/07 09:26:00;;;;;;;5.33;2.40;;;;;;;15.76;100.00;99683.75;5061232;28;20241;-76
2023/08/07 09:28:27;;;;;;;2.50;1.90;;;;;;;15.63;100.00;99701.91;5070907;28;20238;-77
2023/08/07 09:30:54;;;;;;;1.80;1.70;;;;;;;15.60;100.00;99717.00;5073551;28;20235;-77
2023/08/07 09:33:25;;;;;;;3.03;2.10;;;;;;;15.53;100.00;99719.09;5074708;28;20209;-77
2023/08/07 09:35:54;;;;;;;1.90;1.80;;;;;;;15.53;100.00;99699.84;5073533;28;20208;-76
2023/08/07 09:38:23;;;;;;;2.87;1.60;;;;;;;15.50;100.00;99716.66;5074087;28;20211;-76
2023/08/07 09:40:50;;;;;;;3.13;2.73;;;;;;;15.35;100.00;99707.75;5073091;28;20260;-76
2023/08/07 09:43:22;;;;;;;3.33;2.37;;;;;;;15.32;100.00;99717.56;5073756;28;20205;-76
2023/08/07 09:45:50;;;;;;;3.30;1.40;;;;;;;15.21;100.00;99726.00;5073204;28;20232;-77
2023/08/07 09:48:23;;;;;;;3.40;2.30;;;;;;;15.29;100.00;99729.94;5068591;28;20262;-76
2023/08/07 09:50:49;;;;;;;3.10;1.83;;;;;;;15.32;100.00;99739.47;5064979;28;20694;-76
2023/08/07 09:53:17;;;;;;;4.77;2.00;;;;;;;15.50;100.00;99748.22;5062788;28;20579;-76
2023/08/07 09:55:44;;;;;;;2.77;1.50;;;;;;;15.75;100.00;99731.19;5055446;28;20232;-78
2023/08/07 09:58:13;;;;;;;3.07;1.60;;;;;;;15.84;100.00;99747.34;5079364;28;20209;-77
2023/08/07 10:00:41;;;;;;;1.90;1.60;;;;;;;15.96;100.00;99782.72;5075022;28;20229;-77
2023/08/07 10:03:09;;;;;;;2.70;1.87;;;;;;;16.04;100.00;99798.13;5060241;28;20247;-75
2023/08/07 10:05:35;;;;;;;2.37;1.80;;;;;;;16.30;100.00;99772.19;5054506;28;20214;-76
2023/08/07 10:08:02;;;;;;;2.40;1.37;;;;;;;16.09;100.00;99856.63;5073262;28;20213;-76
2023/08/07 10:10:34;;;;;;;2.70;1.40;;;;;;;16.13;100.00;99875.78;5072329;28;20224;-76
2023/08/07 10:13:02;;;;;;;2.70;1.47;;;;;;;16.03;100.00;99878.84;5072115;28;20233;-76
2023/08/07 10:15:30;;;;;;;2.37;1.60;;;;;;;15.91;100.00;99918.13;5072885;28;20670;-76
2023/08/07 10:17:56;;;;;;;3.67;1.63;;;;;;;15.79;100.00;99920.41;5073323;28;20204;-76
2023/08/07 10:20:25;;;;;;;4.40;1.80;;;;;;;15.60;100.00;99893.25;5073306;28;20235;-76
2023/08/07 10:22:53;;;;;;;6.57;2.37;;;;;;;15.23;100.00;99810.91;5074074;28;20564;-76
2023/08/07 10:25:22;;;;;;;6.00;1.90;;;;;;;14.70;100.00;99765.22;5072896;28;20220;-76
2023/08/07 10:27:54;;;;;;;2.80;1.50;;;;;;;14.37;100.00;99722.94;5072783;28;20572;-75
2023/08/07 10:30:23;;;;;;;3.00;1.50;;;;;;;14.32;100.00;99696.06;5072935;28;20208;-76
2023/08/07 10:32:50;;;;;;;3.50;2.27;;;;;;;14.61;100.00;99694.75;5052497;28;20226;-75
2023/08/07 10:35:24;;;;;;;2.10;1.90;;;;;;;14.83;100.00;99703.28;5052589;28;20655;-75
2023/08/07 10:37:52;;;;;;;2.57;1.63;;;;;;;14.95;100.00;99716.75;5052370;28;20674;-76
2023/08/07 10:40:20;;;;;;;3.43;1.23;;;;;;;14.93;100.00;99751.00;5052212;28;20213;-76
2023/08/07 10:42:58;;;;;;;2.40;1.40;;;;;;;14.98;100.00;99742.88;5052662;28;20208;-76
2023/08/07 10:45:27;;;;;;;2.03;1.50;;;;;;;15.08;100.00;99758.16;5068793;28;20207;-76
2023/08/07 10:48:03;;;;;;;2.97;1.50;;;;;;;15.39;100.00;99768.94;5063918;28;20250;-76
2023/08/07 10:50:32;;;;;;;2.10;1.33;;;;;;;15.49;100.00;99752.59;5072259;28;20232;-76
2023/08/07 10:53:01;;;;;;;3.63;1.20;;;;;;;15.37;100.00;99797.09;5072363;28;20224;-77
2023/08/07 10:55:28;;;;;;;3.10;1.40;;;;;;;15.35;100.00;99812.94;5071629;28;20228;-76
2023/08/07 10:57:55;;;;;;;1.93;1.20;;;;;;;15.32;100.00;99823.63;5063926;28;20666;-76
2023/08/07 11:00:26;;;;;;;3.00;1.13;;;;;;;15.15;100.00;99863.84;5072149;28;20209;-76
2023/08/07 11:02:54;;;;;;;2.97;1.40;;;;;;;15.11;100.00;99882.47;5072220;28;20574;-76
2023/08/07 11:05:20;;;;;;;1.73;1.30;;;;;;;15.14;100.00;99874.44;5072111;28;20201;-77
2023/08/07 11:07:47;;;;;;;2.43;1.23;;;;;;;15.22;100.00;99883.69;5071247;28;20208;-76
2023/08/07 11:10:15;;;;;;;3.97;1.27;;;;;;;15.27;100.00;99913.22;5051187;28;20216;-76
2023/08/07 11:12:42;;;;;;;2.13;1.10;;;;;;;15.17;100.00;99940.03;5075342;28;20228;-76
2023/08/07 11:15:13;;;;;;;3.90;1.70;;;;;;;15.23;100.00;99950.25;5072271;28;20561;-77
2023/08/07 11:17:41;;;;;;;4.17;1.37;;;;;;;15.31;100.00;99953.38;5064372;28;20216;-76
2023/08/07 11:20:10;;;;;;;3.50;1.57;;;;;;;15.36;100.00;99963.66;5072574;28;20289;-77
2023/08/07 11:22:39;;;;;;;2.23;1.40;;;;;;;15.50;100.00;99992.84;5072301;28;20211;-77
2023/08/07 11:25:09;;;;;;;2.67;1.30;;;;;;;15.76;100.00;99982.91;5071397;28;20216;-77